createdAt,value
2023-02-01T00:01:45.551Z,109.20
2023-02-01T00:04:14.985Z,105.72
2023-02-01T00:06:43.164Z,103.13
2023-02-01T00:09:11.318Z,101.40
2023-02-01T00:11:39.471Z,99.93
2023-02-01T00:14:09.126Z,101.40
2023-02-01T00:16:37.311Z,98.18
2023-02-01T00:19:09.078Z,109.55
2023-02-01T00:21:37.623Z,109.53
2023-02-01T00:24:06.032Z,108.45
2023-02-01T00:26:34.137Z,105.07
2023-02-01T00:29:05.313Z,119.35
2023-02-01T00:31:33.691Z,120.32
2023-02-01T00:34:01.987Z,114.85
2023-02-01T00:36:33.219Z,124.90
2023-02-01T00:39:01.377Z,131.05
2023-02-01T00:41:29.597Z,114.65
2023-02-01T00:43:58.118Z,121.50
2023-02-01T00:46:26.732Z,114.00
2023-02-01T00:48:55.675Z,113.90
2023-02-01T00:51:26.340Z,119.05
2023-02-01T00:53:55.540Z,121.22
2023-02-01T00:56:23.990Z,116.40
2023-02-01T00:58:55.479Z,135.38
2023-02-01T01:01:26.669Z,129.52
2023-02-01T01:03:59.431Z,122.90
2023-02-01T01:06:30.240Z,120.97
2023-02-01T01:09:00.386Z,125.07
2023-02-01T01:11:34.373Z,120.55
2023-02-01T01:14:02.873Z,125.28
2023-02-01T01:16:32.951Z,129.30
2023-02-01T01:19:01.737Z,123.05
2023-02-01T01:21:30.444Z,128.20
2023-02-01T01:23:59.114Z,125.57
2023-02-01T01:26:30.998Z,123.63
2023-02-01T01:29:00.361Z,134.10
2023-02-01T01:31:29.565Z,118.55
2023-02-01T01:33:59.809Z,131.75
2023-02-01T01:36:30.527Z,124.45
2023-02-01T01:38:59.313Z,127.25
2023-02-01T01:41:32.117Z,118.35
2023-02-01T01:44:07.676Z,120.00
2023-02-01T01:46:41.832Z,114.93
2023-02-01T01:49:17.916Z,127.25
2023-02-01T01:52:04.732Z,134.63
2023-02-01T01:54:43.125Z,128.82
2023-02-01T01:57:18.307Z,125.55
2023-02-01T01:59:51.450Z,124.25
2023-02-01T02:02:20.180Z,116.70
2023-02-01T02:04:49.287Z,126.60
2023-02-01T02:07:31.215Z,120.85
2023-02-01T02:10:01.240Z,125.57
2023-02-01T02:12:32.066Z,126.22
2023-02-01T02:15:00.746Z,123.78
2023-02-01T02:17:49.634Z,127.03
2023-02-01T02:20:41.034Z,133.70
2023-02-01T02:23:51.175Z,126.82
2023-02-01T02:26:40.807Z,137.25
2023-02-01T02:29:28.514Z,131.63
2023-02-01T02:32:31.474Z,132.30
2023-02-01T02:35:03.636Z,135.53
2023-02-01T02:37:47.898Z,90.35
2023-02-01T02:40:43.245Z,132.32
2023-02-01T02:43:42.967Z,127.63
2023-02-01T02:46:55.710Z,137.02
2023-02-01T02:49:41.644Z,135.68
2023-02-01T02:52:38.668Z,135.07
2023-02-01T02:55:09.625Z,134.98
2023-02-01T02:58:00.326Z,128.50
2023-02-01T03:00:53.738Z,128.85
2023-02-01T03:03:40.823Z,128.25
2023-02-01T03:06:17.357Z,127.45
2023-02-01T03:08:46.451Z,139.73
2023-02-01T03:11:16.283Z,130.63
2023-02-01T03:13:47.471Z,132.60
2023-02-01T03:16:56.519Z,129.52
2023-02-01T03:19:44.605Z,125.63
2023-02-01T03:22:16.656Z,120.20
2023-02-01T03:25:03.748Z,124.72
2023-02-01T03:28:03.163Z,118.80
2023-02-01T03:30:43.910Z,120.30
2023-02-01T03:33:23.034Z,127.93
2023-02-01T03:36:23.839Z,130.82
2023-02-01T03:39:08.228Z,127.93
2023-02-01T03:41:44.773Z,129.15
2023-02-01T03:44:30.646Z,134.68
2023-02-01T03:47:05.011Z,136.18
2023-02-01T03:49:42.258Z,131.00
2023-02-01T03:52:19.343Z,140.73
2023-02-01T03:54:50.049Z,137.23
2023-02-01T03:57:28.265Z,133.50
2023-02-01T04:00:08.275Z,132.48
2023-02-01T04:02:42.255Z,129.48
2023-02-01T04:05:10.802Z,143.88
2023-02-01T04:07:42.291Z,145.43
2023-02-01T04:10:11.876Z,150.23
2023-02-01T04:12:40.337Z,151.15
2023-02-01T04:15:09.350Z,149.85
2023-02-01T04:20:05.739Z,156.20
2023-02-01T04:22:33.977Z,153.23
2023-02-01T04:25:02.710Z,156.05
2023-02-01T04:27:30.920Z,146.50
2023-02-01T04:29:59.086Z,151.10
2023-02-01T04:32:27.278Z,153.25
2023-02-01T04:34:55.435Z,149.90
2023-02-01T04:37:23.555Z,152.63
2023-02-01T04:39:51.683Z,147.55
2023-02-01T04:42:19.897Z,158.88
2023-02-01T04:44:48.392Z,154.82
2023-02-01T04:47:16.761Z,155.50
2023-02-01T04:49:44.915Z,154.65
2023-02-01T04:52:13.141Z,148.77
2023-02-01T04:54:41.274Z,147.48
2023-02-01T04:57:09.760Z,144.52
2023-02-01T04:59:37.889Z,148.70
2023-02-01T05:02:06.032Z,136.45
2023-02-01T05:04:34.149Z,145.02
2023-02-01T05:07:02.741Z,142.40
2023-02-01T05:09:30.922Z,135.18
2023-02-01T05:12:31.438Z,134.77
2023-02-01T05:14:59.616Z,118.25
2023-02-01T05:17:27.753Z,120.10
2023-02-01T05:19:55.936Z,120.57
2023-02-01T05:22:24.750Z,110.13
2023-02-01T05:24:52.940Z,125.10
2023-02-01T05:27:21.873Z,120.35
2023-02-01T05:29:50.037Z,122.55
2023-02-01T05:32:23.025Z,113.20
2023-02-01T05:34:51.787Z,121.22
2023-02-01T05:37:20.052Z,120.63
2023-02-01T05:39:48.252Z,122.25
2023-02-01T05:42:16.552Z,121.13
2023-02-01T05:44:44.715Z,123.75
2023-02-01T05:47:16.003Z,123.43
2023-02-01T05:49:44.253Z,124.35
2023-02-01T05:52:12.488Z,124.20
2023-02-01T05:54:40.658Z,114.38
2023-02-01T05:57:09.083Z,123.45
2023-02-01T05:59:41.991Z,116.75
2023-02-01T06:02:11.121Z,127.47
2023-02-01T06:04:40.224Z,127.18
2023-02-01T06:07:10.105Z,123.53
2023-02-01T06:09:38.801Z,134.50
2023-02-01T06:12:08.736Z,121.88
2023-02-01T06:14:38.273Z,122.10
2023-02-01T06:17:07.317Z,136.35
2023-02-01T06:19:35.499Z,133.00
2023-02-01T06:22:07.135Z,128.85
2023-02-01T06:24:35.368Z,136.38
2023-02-01T06:27:03.566Z,138.57
2023-02-01T06:29:31.933Z,136.02
2023-02-01T06:32:00.444Z,136.18
2023-02-01T06:34:28.711Z,128.65
2023-02-01T06:36:58.247Z,133.82
2023-02-01T06:39:28.489Z,141.60
2023-02-01T06:41:56.710Z,135.25
2023-02-01T06:44:24.921Z,127.68
2023-02-01T06:46:53.123Z,134.85
2023-02-01T06:49:21.777Z,137.07
2023-02-01T06:51:50.083Z,151.52
2023-02-01T06:54:18.481Z,148.43
2023-02-01T06:56:46.767Z,154.48
2023-02-01T06:59:17.331Z,153.70
2023-02-01T07:01:45.697Z,154.63
2023-02-01T07:04:14.226Z,158.45
2023-02-01T07:06:45.382Z,153.90
2023-02-01T07:09:14.757Z,150.95
2023-02-01T07:11:44.365Z,155.02
2023-02-01T07:14:12.754Z,155.52
2023-02-01T07:16:41.072Z,153.05
2023-02-01T07:19:09.311Z,158.65
2023-02-01T07:21:37.496Z,146.00
2023-02-01T07:24:06.053Z,154.05
2023-02-01T07:26:34.327Z,139.88
2023-02-01T07:29:02.611Z,149.95
2023-02-01T07:31:30.778Z,151.70
2023-02-01T07:33:59.719Z,153.95
2023-02-01T07:36:29.053Z,161.88
2023-02-01T07:38:58.241Z,188.82
2023-02-01T07:41:26.469Z,159.75
2023-02-01T07:43:57.862Z,157.27
2023-02-01T07:46:28.828Z,150.20
2023-02-01T07:48:57.319Z,143.68
2023-02-01T07:51:25.608Z,162.93
2023-02-01T07:53:56.235Z,147.27
2023-02-01T07:56:26.392Z,144.30
2023-02-01T07:58:57.224Z,150.93
2023-02-01T08:01:27.936Z,147.77
2023-02-01T08:03:57.760Z,140.05
2023-02-01T08:06:27.178Z,133.93
2023-02-01T08:08:56.245Z,127.85
2023-02-01T08:11:27.997Z,128.50
2023-02-01T08:13:56.794Z,130.27
2023-02-01T08:16:25.400Z,123.75
2023-02-01T08:18:55.180Z,116.07
2023-02-01T08:21:26.837Z,123.47
2023-02-01T08:23:55.099Z,113.85
2023-02-01T08:26:26.269Z,117.03
2023-02-01T08:28:58.169Z,112.95
2023-02-01T08:31:29.951Z,108.10
2023-02-01T08:34:00.873Z,110.38
2023-02-01T08:36:30.662Z,118.63
2023-02-01T08:38:59.208Z,122.90
2023-02-01T08:41:30.417Z,123.88
2023-02-01T08:43:59.367Z,121.95
2023-02-01T08:46:27.822Z,123.07
2023-02-01T08:48:57.395Z,127.43
2023-02-01T08:51:25.733Z,132.35
2023-02-01T08:53:53.900Z,123.20
2023-02-01T08:56:22.197Z,128.98
2023-02-01T08:58:50.457Z,139.48
2023-02-01T09:01:19.097Z,136.18
2023-02-01T09:03:47.317Z,137.20
2023-02-01T09:06:17.256Z,133.20
2023-02-01T09:08:45.818Z,142.57
2023-02-01T09:11:17.842Z,130.00
2023-02-01T09:13:46.672Z,130.57
2023-02-01T09:16:15.207Z,132.45
2023-02-01T09:18:55.423Z,135.73
2023-02-01T09:21:30.391Z,131.32
2023-02-01T09:23:59.082Z,125.15
2023-02-01T09:26:32.150Z,123.25
2023-02-01T09:29:02.192Z,123.78
2023-02-01T09:31:31.374Z,126.40
2023-02-01T09:34:00.070Z,127.63
2023-02-01T09:36:30.210Z,118.05
2023-02-01T09:39:00.009Z,128.40
2023-02-01T09:41:36.484Z,123.35
2023-02-01T09:44:13.929Z,128.63
2023-02-01T09:46:42.121Z,142.98
2023-02-01T09:49:23.375Z,142.93
2023-02-01T09:51:54.165Z,135.50
2023-02-01T09:54:30.947Z,136.77
2023-02-01T09:57:08.115Z,128.98
2023-02-01T09:59:46.910Z,132.25
2023-02-01T10:02:25.614Z,146.63
2023-02-01T10:04:57.947Z,144.43
2023-02-01T10:07:40.210Z,145.13
2023-02-01T10:10:40.202Z,138.90
2023-02-01T10:13:31.660Z,133.05
2023-02-01T10:16:19.066Z,134.95
2023-02-01T10:19:16.244Z,131.90
2023-02-01T10:22:06.724Z,133.60
2023-02-01T10:24:53.865Z,134.07
2023-02-01T10:27:27.383Z,132.02
2023-02-01T10:30:15.300Z,132.50
2023-02-01T10:32:43.487Z,129.43
2023-02-01T10:35:17.058Z,129.80
2023-02-01T10:37:47.463Z,131.18
2023-02-01T10:40:25.822Z,133.23
2023-02-01T10:42:58.678Z,143.70
2023-02-01T10:45:29.303Z,127.10
2023-02-01T10:48:03.649Z,131.90
2023-02-01T10:50:54.844Z,129.05
2023-02-01T10:53:36.716Z,122.05
2023-02-01T10:56:10.569Z,130.63
2023-02-01T10:58:48.867Z,130.30
2023-02-01T11:01:24.737Z,127.70
2023-02-01T11:03:54.694Z,129.63
2023-02-01T11:06:37.602Z,130.68
2023-02-01T11:09:11.589Z,133.32
2023-02-01T11:11:48.869Z,129.73
2023-02-01T11:14:29.392Z,138.32
2023-02-01T11:17:03.403Z,128.88
2023-02-01T11:19:31.937Z,135.00
2023-02-01T11:22:02.029Z,139.68
2023-02-01T11:24:39.369Z,129.50
2023-02-01T11:27:27.182Z,137.00
2023-02-01T11:30:03.189Z,133.63
2023-02-01T11:32:32.433Z,129.05
2023-02-01T11:35:06.724Z,132.85
2023-02-01T11:37:41.431Z,139.82
2023-02-01T11:40:27.917Z,136.88
2023-02-01T11:43:09.292Z,139.77
2023-02-01T11:45:38.727Z,132.13
2023-02-01T11:48:26.314Z,136.77
2023-02-01T11:51:24.359Z,132.52
2023-02-01T11:54:38.973Z,130.80
2023-02-01T11:57:19.357Z,127.63
2023-02-01T12:00:11.333Z,130.98
2023-02-01T12:03:05.461Z,127.30
2023-02-01T12:05:33.910Z,130.48
2023-02-01T12:08:29.826Z,126.65
2023-02-01T12:11:06.820Z,131.23
2023-02-01T12:13:34.986Z,118.72
2023-02-01T12:16:36.328Z,125.03
2023-02-01T12:19:17.029Z,131.38
2023-02-01T12:22:14.132Z,125.30
2023-02-01T12:25:46.809Z,132.48
2023-02-01T12:28:47.470Z,128.82
2023-02-01T12:31:27.037Z,125.88
2023-02-01T12:34:19.420Z,117.35
2023-02-01T12:36:51.672Z,126.45
2023-02-01T12:39:46.620Z,128.95
2023-02-01T12:42:24.965Z,130.25
2023-02-01T12:44:58.356Z,125.78
2023-02-01T12:50:35.281Z,118.25
2023-02-01T12:53:31.596Z,121.57
2023-02-01T12:56:05.214Z,126.25
2023-02-01T12:58:43.821Z,129.43
2023-02-01T13:01:27.116Z,125.95
2023-02-01T13:04:12.521Z,130.95
2023-02-01T13:10:04.854Z,128.63
2023-02-01T13:12:51.465Z,123.72
2023-02-01T13:15:29.671Z,124.35
2023-02-01T13:18:04.022Z,116.15
2023-02-01T13:20:34.057Z,115.78
2023-02-01T13:23:05.244Z,120.38
2023-02-01T13:25:41.853Z,123.18
2023-02-01T13:28:20.766Z,123.88
2023-02-01T13:31:01.070Z,121.88
2023-02-01T13:33:54.404Z,124.10
2023-02-01T13:36:36.861Z,121.75
2023-02-01T13:39:28.233Z,125.95
2023-02-01T13:41:58.604Z,123.68
2023-02-01T13:44:29.425Z,120.18
2023-02-01T13:47:02.468Z,128.68
2023-02-01T13:49:38.315Z,124.30
2023-02-01T13:52:06.808Z,121.40
2023-02-01T13:54:39.028Z,125.00
2023-02-01T13:57:35.623Z,117.18
2023-02-01T14:00:25.486Z,126.97
2023-02-01T14:03:02.938Z,120.53
2023-02-01T14:05:31.036Z,121.55
2023-02-01T14:08:22.565Z,119.97
2023-02-01T14:10:53.781Z,129.55
2023-02-01T14:13:36.732Z,121.53
2023-02-01T14:16:05.052Z,118.03
2023-02-01T14:18:39.135Z,121.93
2023-02-01T14:21:28.656Z,116.55
2023-02-01T14:24:09.483Z,125.25
2023-02-01T14:26:48.992Z,130.82
2023-02-01T14:29:21.124Z,121.97
2023-02-01T14:32:05.014Z,118.70
2023-02-01T14:37:17.882Z,113.75
2023-02-01T14:39:46.059Z,119.55
2023-02-01T14:42:27.812Z,116.20
2023-02-01T14:45:17.657Z,117.10
2023-02-01T14:47:48.831Z,112.40
2023-02-01T14:50:29.641Z,117.82
2023-02-01T14:53:13.448Z,121.57
2023-02-01T14:56:05.269Z,113.88
2023-02-01T14:58:48.602Z,119.72
2023-02-01T15:01:26.027Z,120.45
2023-02-01T15:04:03.133Z,119.88
2023-02-01T15:06:55.871Z,121.82
2023-02-01T15:09:30.885Z,116.95
2023-02-01T15:12:06.303Z,119.18
2023-02-01T15:14:38.854Z,117.55
2023-02-01T15:17:30.467Z,131.03
2023-02-01T15:20:01.269Z,122.07
2023-02-01T15:22:31.710Z,122.60
2023-02-01T15:25:01.365Z,128.07
2023-02-01T15:27:30.952Z,121.63
2023-02-01T15:30:20.551Z,123.05
2023-02-01T15:32:49.528Z,125.30
2023-02-01T15:35:34.085Z,125.28
2023-02-01T15:38:21.139Z,134.93
2023-02-01T15:41:02.643Z,123.70
2023-02-01T15:43:39.894Z,126.75
2023-02-01T15:46:15.593Z,131.73
2023-02-01T15:48:48.017Z,126.18
2023-02-01T15:51:20.878Z,122.40
2023-02-01T15:53:52.729Z,147.88
2023-02-01T15:56:29.219Z,139.00
2023-02-01T15:59:02.751Z,126.63
2023-02-01T16:01:31.696Z,126.93
2023-02-01T16:04:19.462Z,136.52
2023-02-01T16:06:52.198Z,127.40
2023-02-01T16:09:26.139Z,140.90
2023-02-01T16:12:02.195Z,132.10
2023-02-01T16:14:33.413Z,125.00
2023-02-01T16:17:01.566Z,137.38
2023-02-01T16:19:30.092Z,139.77
2023-02-01T16:21:59.920Z,138.98
2023-02-01T16:24:28.954Z,145.40
2023-02-01T16:26:59.584Z,141.15
2023-02-01T16:29:27.906Z,140.80
2023-02-01T16:31:56.269Z,142.02
2023-02-01T16:34:24.552Z,146.38
2023-02-01T16:36:53.378Z,156.68
2023-02-01T16:39:22.405Z,151.88
2023-02-01T16:41:51.460Z,149.82
2023-02-01T16:44:19.624Z,161.40
2023-02-01T16:46:49.561Z,162.32
2023-02-01T16:49:26.345Z,174.85
2023-02-01T16:52:00.039Z,162.48
2023-02-01T16:54:36.389Z,171.30
2023-02-01T16:57:05.568Z,158.52
2023-02-01T16:59:33.760Z,164.98
2023-02-01T17:02:01.965Z,149.82
2023-02-01T17:04:32.012Z,162.93
2023-02-01T17:07:09.403Z,172.65
2023-02-01T17:09:40.626Z,167.35
2023-02-01T17:12:30.350Z,168.40
2023-02-01T17:14:59.960Z,170.57
2023-02-01T17:17:38.849Z,162.95
2023-02-01T17:20:08.283Z,160.55
2023-02-01T17:22:36.425Z,168.07
2023-02-01T17:25:09.077Z,166.32
2023-02-01T17:27:38.818Z,172.00
2023-02-01T17:30:07.748Z,170.95
2023-02-01T17:32:36.551Z,167.98
2023-02-01T17:35:07.244Z,179.30
2023-02-01T17:37:38.877Z,145.15
2023-02-01T17:40:07.709Z,159.15
2023-02-01T17:42:38.914Z,146.80
2023-02-01T17:45:22.474Z,135.00
2023-02-01T17:47:50.887Z,138.25
2023-02-01T17:50:19.151Z,131.57
2023-02-01T17:52:47.410Z,134.80
2023-02-01T17:55:20.018Z,134.15
2023-02-01T17:57:48.620Z,127.75
2023-02-01T18:00:18.420Z,131.98
2023-02-01T18:02:46.743Z,137.00
2023-02-01T18:05:20.378Z,129.27
2023-02-01T18:07:48.592Z,132.15
2023-02-01T18:10:18.654Z,116.15
2023-02-01T18:12:46.926Z,138.32
2023-02-01T18:15:16.394Z,121.88
2023-02-01T18:17:44.652Z,127.40
2023-02-01T18:20:18.061Z,127.43
2023-02-01T18:22:49.621Z,127.00
2023-02-01T18:25:38.241Z,129.47
2023-02-01T18:28:06.397Z,122.97
2023-02-01T18:30:35.415Z,122.45
2023-02-01T18:33:03.743Z,128.50
2023-02-01T18:35:33.305Z,122.53
2023-02-01T18:38:01.566Z,133.52
2023-02-01T18:40:33.553Z,121.13
2023-02-01T18:43:02.338Z,133.10
2023-02-01T18:45:31.918Z,123.88
2023-02-01T18:48:00.961Z,118.25
2023-02-01T18:50:37.220Z,127.82
2023-02-01T18:53:10.571Z,127.72
2023-02-01T18:55:38.736Z,124.07
2023-02-01T18:58:07.220Z,128.73
2023-02-01T19:00:36.565Z,122.32
2023-02-01T19:03:04.807Z,122.00
2023-02-01T19:05:33.070Z,122.35
2023-02-01T19:08:01.160Z,124.03
2023-02-01T19:10:29.403Z,126.93
2023-02-01T19:12:57.924Z,127.68
2023-02-01T19:15:26.815Z,127.50
2023-02-01T19:17:55.824Z,124.88
2023-02-01T19:20:26.088Z,119.80
2023-02-01T19:22:54.810Z,122.05
2023-02-01T19:25:28.308Z,125.32
2023-02-01T19:27:56.501Z,116.03
2023-02-01T19:30:25.705Z,112.85
2023-02-01T19:32:53.898Z,131.93
2023-02-01T19:35:22.984Z,121.57
2023-02-01T19:37:51.433Z,115.43
2023-02-01T19:40:20.901Z,119.78
2023-02-01T19:42:49.492Z,110.85
2023-02-01T19:45:17.759Z,116.82
2023-02-01T19:47:45.960Z,106.43
2023-02-01T19:50:20.006Z,108.43
2023-02-01T19:52:49.358Z,110.05
2023-02-01T19:55:17.600Z,109.07
2023-02-01T19:57:45.741Z,111.57
2023-02-01T20:00:16.711Z,107.25
2023-02-01T20:02:46.303Z,114.82
2023-02-01T20:05:15.270Z,102.60
2023-02-01T20:07:43.574Z,108.20
2023-02-01T20:10:11.817Z,107.38
2023-02-01T20:12:40.519Z,100.40
2023-02-01T20:15:09.320Z,103.97
2023-02-01T20:17:40.165Z,100.72
2023-02-01T20:20:09.147Z,107.63
2023-02-01T20:22:37.394Z,105.93
2023-02-01T20:25:06.431Z,115.43
2023-02-01T20:27:35.468Z,105.72
2023-02-01T20:30:04.372Z,108.43
2023-02-01T20:32:32.581Z,110.85
2023-02-01T20:35:00.724Z,121.82
2023-02-01T20:37:28.943Z,116.05
2023-02-01T20:39:57.154Z,114.15
2023-02-01T20:42:25.416Z,119.53
2023-02-01T20:44:53.541Z,117.60
2023-02-01T20:47:24.754Z,117.97
2023-02-01T20:49:52.895Z,127.43
2023-02-01T20:52:21.240Z,116.07
2023-02-01T20:54:50.229Z,125.47
2023-02-01T20:57:18.451Z,124.45
2023-02-01T20:59:49.268Z,136.68
2023-02-01T21:02:17.638Z,128.10
2023-02-01T21:04:45.825Z,124.63
2023-02-01T21:07:14.343Z,136.63
2023-02-01T21:09:43.370Z,126.07
2023-02-01T21:12:11.840Z,128.00
2023-02-01T21:14:40.051Z,127.22
2023-02-01T21:17:08.189Z,124.28
2023-02-01T21:19:43.193Z,140.05
2023-02-01T21:22:12.738Z,147.52
2023-02-01T21:24:41.533Z,139.80
2023-02-01T21:27:10.546Z,136.90
2023-02-01T21:29:39.009Z,123.10
2023-02-01T21:32:08.735Z,135.73
2023-02-01T21:34:38.224Z,131.95
2023-02-01T21:37:06.369Z,133.90
2023-02-01T21:39:34.764Z,130.50
2023-02-01T21:42:14.896Z,129.20
2023-02-01T21:44:46.224Z,125.85
2023-02-01T21:47:17.355Z,125.28
2023-02-01T21:49:47.386Z,134.85
2023-02-01T21:52:17.614Z,134.60
2023-02-01T21:54:46.149Z,141.57
2023-02-01T21:57:14.419Z,127.35
2023-02-01T21:59:43.847Z,135.52
2023-02-01T22:02:17.456Z,130.02
2023-02-01T22:04:45.955Z,125.43
2023-02-01T22:07:14.085Z,134.23
2023-02-01T22:09:42.327Z,142.20
2023-02-01T22:12:13.347Z,132.00
2023-02-01T22:14:44.797Z,131.80
2023-02-01T22:17:13.614Z,138.98
2023-02-01T22:19:42.536Z,129.93
2023-02-01T22:22:11.813Z,135.45
2023-02-01T22:24:39.983Z,130.43
2023-02-01T22:27:13.549Z,122.60
2023-02-01T22:29:43.680Z,126.30
2023-02-01T22:32:13.930Z,119.93
2023-02-01T22:34:42.787Z,124.18
2023-02-01T22:37:12.083Z,122.18
2023-02-01T22:39:41.155Z,122.68
2023-02-01T22:42:09.612Z,123.60
2023-02-01T22:44:37.805Z,131.85
2023-02-01T22:47:06.034Z,135.30
2023-02-01T22:49:34.204Z,137.10
2023-02-01T22:52:02.369Z,143.48
2023-02-01T22:54:30.483Z,139.90
2023-02-01T22:57:00.200Z,136.15
2023-02-01T22:59:28.601Z,148.32
2023-02-01T23:01:56.765Z,149.07
2023-02-01T23:04:25.051Z,150.60
2023-02-01T23:06:54.168Z,136.82
2023-02-01T23:09:27.918Z,142.82
2023-02-01T23:11:56.196Z,146.32
2023-02-01T23:14:24.749Z,146.32
2023-02-01T23:16:52.977Z,137.70
2023-02-01T23:19:21.523Z,149.20
2023-02-01T23:21:50.152Z,149.35
2023-02-01T23:24:18.598Z,152.43
2023-02-01T23:26:48.473Z,147.82
2023-02-01T23:29:18.551Z,145.65
2023-02-01T23:31:47.076Z,142.30
2023-02-01T23:34:15.639Z,146.40
2023-02-01T23:36:43.950Z,149.43
2023-02-01T23:39:12.086Z,136.52
2023-02-01T23:41:40.227Z,144.88
2023-02-01T23:44:08.460Z,139.48
2023-02-01T23:46:44.527Z,148.20
2023-02-01T23:49:14.145Z,147.10
2023-02-01T23:51:43.268Z,143.95
2023-02-01T23:54:12.100Z,153.38
2023-02-01T23:56:44.053Z,151.20
2023-02-01T23:59:20.489Z,147.55
